Time;durP1;ratioP1;P1;durP2;ratioP2;P2;SDS_P1;SDS_P2;PMS_P1;PMS_P2;Temp;Humidity;BMP_temperature;BMP_pressure;BME280_temperature;BME280_humidity;BME280_pressure;Samples;Min_cycle;Max_cycle;Signal;HPM_P1;HPM_P2
2023/06/22 00:00:56;;;;;;;7.20;4.13;;;20.10;67.80;;;;;;5012288;28;20033;-80
2023/06/22 00:03:24;;;;;;;7.32;4.40;;;20.00;67.90;;;;;;5009605;28;20030;-79
2023/06/22 00:05:50;;;;;;;7.72;4.25;;;20.00;68.60;;;;;;5016048;28;20056;-79
2023/06/22 00:08:16;;;;;;;8.10;4.00;;;20.00;68.80;;;;;;5008187;28;20030;-80
2023/06/22 00:10:43;;;;;;;8.77;4.32;;;20.00;69.30;;;;;;5007873;28;20057;-79
2023/06/22 00:13:09;;;;;;;6.32;3.75;;;20.00;69.00;;;;;;5007037;28;20043;-79
2023/06/22 00:15:36;;;;;;;7.45;4.05;;;20.00;69.10;;;;;;5017403;28;20557;-80
2023/06/22 00:18:02;;;;;;;8.32;4.28;;;20.00;69.20;;;;;;5027970;28;20037;-82
2023/06/22 00:20:28;;;;;;;8.38;4.50;;;20.00;68.90;;;;;;5037756;28;20025;-81
2023/06/22 00:22:58;;;;;;;8.05;4.60;;;19.90;69.50;;;;;;5017116;28;20033;-80
2023/06/22 00:25:24;;;;;;;8.20;4.25;;;19.80;69.20;;;;;;5025411;28;20061;-81
2023/06/22 00:27:50;;;;;;;7.80;4.50;;;19.70;69.90;;;;;;5009520;28;20146;-79
2023/06/22 00:30:16;;;;;;;7.55;4.82;;;19.70;70.20;;;;;;5008270;28;20141;-81
2023/06/22 00:32:43;;;;;;;7.70;4.55;;;19.60;70.10;;;;;;5005583;28;20462;-81
2023/06/22 00:35:12;;;;;;;8.50;4.70;;;19.60;70.70;;;;;;5000634;28;20088;-82
2023/06/22 00:37:40;;;;;;;8.35;5.00;;;19.60;70.60;;;;;;5001354;28;20041;-82
2023/06/22 00:40:07;;;;;;;8.38;4.47;;;19.60;71.10;;;;;;5010063;28;20789;-79
2023/06/22 00:42:33;;;;;;;7.78;4.70;;;19.60;71.20;;;;;;5007797;28;20569;-82
2023/06/22 00:44:59;;;;;;;7.80;4.63;;;19.60;71.20;;;;;;5007832;28;20035;-80
2023/06/22 00:47:24;;;;;;;8.43;5.10;;;19.60;71.40;;;;;;5003519;28;20034;-81
2023/06/22 00:49:53;;;;;;;8.52;5.32;;;19.60;71.60;;;;;;5014084;28;20147;-80
2023/06/22 00:52:27;;;;;;;11.13;5.20;;;19.60;71.60;;;;;;5007711;28;20385;-80
2023/06/22 00:54:53;;;;;;;8.30;5.00;;;19.60;71.70;;;;;;5009413;28;20406;-83
2023/06/22 00:57:19;;;;;;;8.65;4.85;;;19.50;71.90;;;;;;5008663;28;20035;-82
2023/06/22 00:59:47;;;;;;;9.27;5.53;;;19.50;72.40;;;;;;5011530;28;21020;-83
2023/06/22 01:02:13;;;;;;;9.65;5.38;;;19.50;72.20;;;;;;4999098;28;21599;-79
2023/06/22 01:04:40;;;;;;;8.75;6.28;;;19.40;72.60;;;;;;5007317;28;20050;-82
2023/06/22 01:07:31;;;;;;;10.20;6.07;;;19.20;72.10;;;;;;5007548;28;20045;-83
2023/06/22 01:10:07;;;;;;;9.82;5.70;;;19.10;72.70;;;;;;5003442;28;20056;-82
2023/06/22 01:12:38;;;;;;;9.57;6.03;;;19.10;72.90;;;;;;5002052;28;20042;-79
2023/06/22 01:15:39;;;;;;;10.13;6.75;;;19.10;72.80;;;;;;4997205;28;20050;-82
2023/06/22 01:18:07;;;;;;;10.90;6.82;;;19.10;72.70;;;;;;4988784;28;20038;-81
2023/06/22 01:20:35;;;;;;;11.23;6.53;;;19.00;72.80;;;;;;4988032;28;20030;-79
2023/06/22 01:23:27;;;;;;;12.13;8.05;;;19.00;73.30;;;;;;4990325;28;20053;-82
2023/06/22 01:26:16;;;;;;;10.23;6.93;;;18.90;73.30;;;;;;4986332;28;20072;-82
2023/06/22 01:28:55;;;;;;;12.00;7.90;;;18.80;73.70;;;;;;5012462;28;20437;-81
2023/06/22 01:31:25;;;;;;;10.73;7.15;;;18.70;74.00;;;;;;5006162;28;20133;-83
2023/06/22 01:33:58;;;;;;;10.25;7.10;;;18.80;74.00;;;;;;5011723;28;20041;-83
2023/06/22 01:36:25;;;;;;;11.70;8.00;;;18.80;74.40;;;;;;5011293;28;20042;-80
2023/06/22 01:38:52;;;;;;;12.18;8.15;;;18.80;74.20;;;;;;5010684;28;20464;-80
2023/06/22 01:41:19;;;;;;;11.75;9.02;;;18.80;74.40;;;;;;5008941;28;20030;-80
2023/06/22 01:43:46;;;;;;;12.05;8.48;;;18.80;74.40;;;;;;5009748;28;20116;-87
2023/06/22 01:46:19;;;;;;;12.77;9.35;;;18.80;74.60;;;;;;5006264;28;20040;-82
2023/06/22 01:48:45;;;;;;;11.27;8.45;;;18.70;74.80;;;;;;5016552;28;20026;-81
2023/06/22 01:51:10;;;;;;;12.93;8.85;;;18.70;75.20;;;;;;5009307;28;20053;-79
2023/06/22 01:53:37;;;;;;;13.85;8.30;;;18.70;75.00;;;;;;4995297;28;20053;-80
2023/06/22 01:56:03;;;;;;;12.55;9.25;;;18.60;75.40;;;;;;4998916;28;20030;-80
2023/06/22 01:58:30;;;;;;;14.15;8.45;;;18.70;75.40;;;;;;4994238;28;20065;-80
2023/06/22 02:01:10;;;;;;;12.60;8.50;;;18.70;75.50;;;;;;4998418;28;20031;-85
2023/06/22 02:03:46;;;;;;;12.32;8.82;;;18.70;75.70;;;;;;4996496;28;20041;-79
2023/06/22 02:06:21;;;;;;;12.48;8.75;;;18.70;75.70;;;;;;4988225;28;20479;-81
2023/06/22 02:08:51;;;;;;;13.70;10.25;;;18.60;75.60;;;;;;4989499;28;20026;-79
2023/06/22 02:11:20;;;;;;;13.88;9.38;;;18.60;75.60;;;;;;4987110;28;20467;-81
2023/06/22 02:13:46;;;;;;;13.98;9.98;;;18.60;75.90;;;;;;4999428;28;20053;-80
2023/06/22 02:16:13;;;;;;;14.65;9.80;;;18.50;76.20;;;;;;4989852;28;20038;-81
2023/06/22 02:18:40;;;;;;;14.18;9.70;;;18.40;76.20;;;;;;4996164;28;20528;-80
2023/06/22 02:21:06;;;;;;;16.98;10.27;;;18.40;76.50;;;;;;4991519;28;20115;-80
2023/06/22 02:23:35;;;;;;;14.23;9.63;;;18.40;76.80;;;;;;4991372;28;20030;-79
2023/06/22 02:26:02;;;;;;;16.63;9.68;;;18.40;76.90;;;;;;5003827;28;20095;-79
2023/06/22 02:28:28;;;;;;;15.90;10.02;;;18.40;77.30;;;;;;4993456;28;20033;-79
2023/06/22 02:30:53;;;;;;;14.30;9.50;;;18.40;77.10;;;;;;4998921;28;20038;-79
2023/06/22 02:33:19;;;;;;;15.88;10.55;;;18.40;77.10;;;;;;5003666;28;20026;-84
2023/06/22 02:35:47;;;;;;;14.50;9.52;;;18.40;77.30;;;;;;5012065;28;20026;-83
2023/06/22 02:38:14;;;;;;;16.88;11.85;;;18.40;77.40;;;;;;5020875;28;20102;-83
2023/06/22 02:40:39;;;;;;;15.25;10.23;;;18.30;77.60;;;;;;5016745;28;20395;-79
2023/06/22 02:43:05;;;;;;;13.38;11.13;;;18.20;77.90;;;;;;5020634;28;20041;-86
2023/06/22 02:45:31;;;;;;;15.95;11.23;;;18.20;77.90;;;;;;5016940;28;20033;-87
2023/06/22 02:47:57;;;;;;;15.80;12.00;;;18.10;78.20;;;;;;5025326;28;20033;-82
2023/06/22 02:50:22;;;;;;;15.82;10.88;;;18.10;78.70;;;;;;5020674;28;20029;-82
2023/06/22 02:52:48;;;;;;;19.10;12.25;;;18.00;78.90;;;;;;5026588;28;20037;-88
2023/06/22 02:55:14;;;;;;;15.45;10.13;;;18.00;79.10;;;;;;5003930;28;20030;-79
2023/06/22 02:57:43;;;;;;;16.40;11.88;;;18.00;79.40;;;;;;5012583;28;20045;-80
2023/06/22 03:00:19;;;;;;;14.75;10.73;;;18.00;79.20;;;;;;4998685;28;20014;-80
2023/06/22 03:02:46;;;;;;;14.95;11.18;;;18.00;79.00;;;;;;5023311;28;20033;-79
2023/06/22 03:05:13;;;;;;;13.30;10.52;;;18.10;78.90;;;;;;5014883;28;20124;-79
2023/06/22 03:07:42;;;;;;;14.73;10.98;;;18.10;78.90;;;;;;5021518;28;20030;-79
2023/06/22 03:10:09;;;;;;;14.05;11.25;;;18.10;78.60;;;;;;5010483;28;20087;-79
2023/06/22 03:12:36;;;;;;;15.23;10.68;;;18.00;78.40;;;;;;5011280;28;20577;-79
2023/06/22 03:15:07;;;;;;;15.93;12.02;;;17.90;78.70;;;;;;5012287;28;20050;-80
2023/06/22 03:17:35;;;;;;;18.17;12.50;;;17.80;78.60;;;;;;5012582;28;20044;-79
2023/06/22 03:20:01;;;;;;;14.38;11.60;;;17.90;78.60;;;;;;5008995;28;20113;-79
2023/06/22 03:22:27;;;;;;;14.15;11.43;;;17.90;78.40;;;;;;5007984;28;20061;-79
2023/06/22 03:24:52;;;;;;;14.45;10.90;;;17.80;78.40;;;;;;5000288;28;20065;-80
2023/06/22 03:27:18;;;;;;;15.15;11.90;;;17.90;78.90;;;;;;5001996;28;20467;-80
2023/06/22 03:29:44;;;;;;;15.68;12.13;;;17.90;78.40;;;;;;4997677;28;20044;-81
2023/06/22 03:32:10;;;;;;;16.52;11.38;;;17.80;78.30;;;;;;5003760;28;20599;-81
2023/06/22 03:34:36;;;;;;;15.20;11.50;;;17.80;78.10;;;;;;4997658;28;20073;-81
2023/06/22 03:37:02;;;;;;;16.70;11.82;;;18.00;77.90;;;;;;5003633;28;20030;-81
2023/06/22 03:39:28;;;;;;;14.40;11.55;;;18.10;77.80;;;;;;5003501;28;20033;-81
2023/06/22 03:41:54;;;;;;;15.60;10.85;;;18.10;76.90;;;;;;5003572;28;20041;-81
2023/06/22 03:44:19;;;;;;;15.85;10.75;;;18.10;76.50;;;;;;5001586;28;20789;-81
2023/06/22 03:46:45;;;;;;;15.95;12.20;;;18.10;76.40;;;;;;5007019;28;20072;-80
2023/06/22 03:49:11;;;;;;;16.08;10.93;;;18.10;76.10;;;;;;5005044;28;20441;-81
2023/06/22 03:51:36;;;;;;;15.02;10.60;;;18.10;76.40;;;;;;5010143;28;20038;-82
2023/06/22 03:54:02;;;;;;;17.08;11.65;;;18.10;76.60;;;;;;4996206;28;20084;-82
2023/06/22 03:56:28;;;;;;;16.85;11.45;;;18.20;75.90;;;;;;4998026;28;20042;-81
2023/06/22 03:58:53;;;;;;;14.57;11.05;;;18.20;75.80;;;;;;4996328;28;20109;-79
2023/06/22 04:01:19;;;;;;;12.80;9.65;;;18.30;75.40;;;;;;5007018;28;20064;-80
2023/06/22 04:03:47;;;;;;;14.52;10.05;;;18.40;75.70;;;;;;4998913;28;20030;-78
2023/06/22 04:06:13;;;;;;;14.65;9.93;;;18.50;75.80;;;;;;4995295;28;20402;-80
2023/06/22 04:08:39;;;;;;;15.63;10.57;;;18.60;75.50;;;;;;4995675;28;20026;-81
2023/06/22 04:11:05;;;;;;;14.35;10.30;;;18.60;75.20;;;;;;4997346;28;20486;-80
2023/06/22 04:13:30;;;;;;;16.48;10.95;;;18.60;75.20;;;;;;4999611;28;20053;-79
2023/06/22 04:15:56;;;;;;;13.55;10.38;;;18.60;74.50;;;;;;5015169;28;20041;-78
2023/06/22 04:18:22;;;;;;;15.05;10.32;;;18.60;74.90;;;;;;5011160;28;20038;-79
2023/06/22 04:20:47;;;;;;;13.50;9.93;;;18.50;75.10;;;;;;5019443;28;20111;-78
2023/06/22 04:23:13;;;;;;;15.18;10.52;;;18.60;75.00;;;;;;5013240;28;20045;-78
2023/06/22 04:25:39;;;;;;;13.70;10.07;;;18.60;75.10;;;;;;5015721;28;20025;-79
2023/06/22 04:28:05;;;;;;;15.25;11.50;;;18.70;75.10;;;;;;5007571;28;20056;-78
2023/06/22 04:30:32;;;;;;;14.68;11.05;;;18.70;74.50;;;;;;5003474;28;20459;-81
2023/06/22 04:32:58;;;;;;;14.40;10.60;;;18.60;74.40;;;;;;5008640;28;20438;-82
2023/06/22 04:35:25;;;;;;;14.68;10.93;;;18.70;74.90;;;;;;5009923;28;20045;-82
2023/06/22 04:37:54;;;;;;;17.00;11.50;;;18.80;74.80;;;;;;5006480;28;20081;-81
2023/06/22 04:40:21;;;;;;;13.68;10.48;;;18.80;74.60;;;;;;5009259;28;20429;-82
2023/06/22 04:42:52;;;;;;;13.02;10.07;;;18.70;75.00;;;;;;5007077;28;21282;-82
2023/06/22 04:45:18;;;;;;;15.07;11.43;;;18.90;75.00;;;;;;5007094;28;20411;-81
2023/06/22 04:47:45;;;;;;;15.48;10.57;;;19.00;74.40;;;;;;5005356;28;20041;-81
2023/06/22 04:50:11;;;;;;;15.23;11.73;;;19.10;74.40;;;;;;5006787;28;21181;-82
2023/06/22 04:52:37;;;;;;;15.98;11.88;;;19.10;74.10;;;;;;5012540;28;20041;-79
2023/06/22 04:55:03;;;;;;;16.58;11.60;;;19.20;74.10;;;;;;5002238;28;20038;-83
2023/06/22 04:57:32;;;;;;;16.55;12.60;;;19.30;74.00;;;;;;5003076;28;20041;-80
2023/06/22 05:00:13;;;;;;;16.88;12.35;;;19.30;73.50;;;;;;5000115;28;20026;-81
2023/06/22 05:02:39;;;;;;;17.58;12.98;;;19.50;73.50;;;;;;5010960;28;20095;-80
2023/06/22 05:05:06;;;;;;;15.25;11.82;;;19.50;74.00;;;;;;5006534;28;20082;-83
2023/06/22 05:07:36;;;;;;;17.60;12.77;;;19.60;74.20;;;;;;5014119;28;20046;-81
2023/06/22 05:10:03;;;;;;;15.90;12.40;;;20.20;72.50;;;;;;5002869;28;20029;-80
2023/06/22 05:12:29;;;;;;;14.95;11.30;;;21.20;70.40;;;;;;5006044;28;20069;-80
2023/06/22 05:14:55;;;;;;;14.85;10.75;;;22.20;67.20;;;;;;5003322;28;20045;-80
2023/06/22 05:17:21;;;;;;;15.48;11.48;;;23.00;63.80;;;;;;5010344;28;20034;-80
2023/06/22 05:19:49;;;;;;;15.15;11.15;;;23.40;63.00;;;;;;5012125;28;20033;-80
2023/06/22 05:22:15;;;;;;;14.27;10.45;;;23.40;62.10;;;;;;5007573;28;20542;-83
2023/06/22 05:24:42;;;;;;;13.48;10.73;;;23.30;62.50;;;;;;5014650;28;20038;-80
2023/06/22 05:27:08;;;;;;;14.80;10.80;;;22.70;64.10;;;;;;5004206;28;20045;-80
2023/06/22 05:29:35;;;;;;;17.70;11.70;;;22.30;66.10;;;;;;5001620;28;20034;-82
2023/06/22 05:32:01;;;;;;;15.82;12.25;;;21.90;67.80;;;;;;5003156;28;20045;-80
2023/06/22 05:34:26;;;;;;;14.75;12.10;;;21.50;68.80;;;;;;5004499;28;20044;-78
2023/06/22 05:36:52;;;;;;;15.13;11.90;;;21.30;70.00;;;;;;5011210;28;20056;-75
2023/06/22 05:39:18;;;;;;;18.23;11.77;;;20.80;71.40;;;;;;5003996;28;20030;-78
2023/06/22 05:41:45;;;;;;;17.73;12.95;;;20.70;72.60;;;;;;5003567;28;20072;-76
2023/06/22 05:44:11;;;;;;;17.00;13.25;;;20.60;73.20;;;;;;5001564;28;20041;-76
2023/06/22 05:46:36;;;;;;;18.05;13.55;;;20.40;74.20;;;;;;5004071;28;20046;-75
2023/06/22 05:49:02;;;;;;;16.98;13.20;;;20.60;73.90;;;;;;5006021;28;20037;-76
2023/06/22 05:51:28;;;;;;;17.65;13.93;;;20.70;73.90;;;;;;5002947;28;20118;-76
2023/06/22 05:53:54;;;;;;;17.23;13.20;;;20.90;73.40;;;;;;5007899;28;20034;-76
2023/06/22 05:56:20;;;;;;;16.80;13.57;;;21.00;73.00;;;;;;5000346;28;20038;-77
2023/06/22 05:58:47;;;;;;;16.98;13.38;;;20.90;73.00;;;;;;5003936;28;20047;-78
2023/06/22 06:01:15;;;;;;;19.02;14.45;;;20.80;74.10;;;;;;5005442;28;20083;-75
2023/06/22 06:03:41;;;;;;;17.50;13.43;;;20.80;73.80;;;;;;5005368;28;20434;-76
2023/06/22 06:06:10;;;;;;;17.63;14.07;;;20.80;74.00;;;;;;4999162;28;20121;-75
2023/06/22 06:08:37;;;;;;;19.08;14.10;;;20.70;74.60;;;;;;4977468;28;20034;-75
2023/06/22 06:11:02;;;;;;;18.30;15.13;;;20.70;74.70;;;;;;4977466;28;20030;-76
2023/06/22 06:13:28;;;;;;;17.30;13.52;;;20.60;75.10;;;;;;4978946;28;21268;-77
2023/06/22 06:15:57;;;;;;;16.15;12.07;;;20.70;75.40;;;;;;4981267;28;20039;-75
2023/06/22 06:18:23;;;;;;;19.55;14.77;;;20.90;75.30;;;;;;4985256;28;20077;-75
2023/06/22 06:20:48;;;;;;;19.30;14.38;;;20.70;75.10;;;;;;4979536;28;20023;-75
2023/06/22 06:23:14;;;;;;;20.27;14.45;;;20.70;75.30;;;;;;4970008;28;20039;-75
2023/06/22 06:25:40;;;;;;;21.05;14.98;;;20.80;75.30;;;;;;4978722;28;20093;-75
2023/06/22 06:28:05;;;;;;;19.63;14.23;;;20.90;75.40;;;;;;4979278;28;20041;-77
2023/06/22 06:30:31;;;;;;;22.63;16.38;;;21.00;74.70;;;;;;4973652;28;20471;-80
2023/06/22 06:32:57;;;;;;;19.88;15.18;;;21.10;74.10;;;;;;4980481;28;20049;-76
2023/06/22 06:35:23;;;;;;;18.75;15.52;;;21.10;74.20;;;;;;4982653;28;20026;-76
2023/06/22 06:37:50;;;;;;;21.92;16.17;;;21.10;74.60;;;;;;4973901;28;20042;-75
2023/06/22 06:40:17;;;;;;;22.92;16.40;;;21.10;74.30;;;;;;4982252;28;20442;-78
2023/06/22 06:42:48;;;;;;;23.50;16.88;;;21.20;74.40;;;;;;4981150;28;20034;-74
2023/06/22 06:45:19;;;;;;;20.52;16.42;;;21.20;74.30;;;;;;4976801;28;20027;-73
2023/06/22 06:47:45;;;;;;;22.52;16.25;;;21.30;74.60;;;;;;4973355;28;20065;-72
2023/06/22 06:50:12;;;;;;;22.45;15.98;;;21.50;73.70;;;;;;4982599;28;20022;-73
2023/06/22 06:52:38;;;;;;;22.23;17.58;;;21.60;73.00;;;;;;4976508;28;20042;-74
2023/06/22 06:55:07;;;;;;;22.08;17.17;;;21.70;73.10;;;;;;4984028;28;20041;-72
2023/06/22 06:57:33;;;;;;;21.42;16.08;;;21.90;72.60;;;;;;4990782;28;20050;-76
2023/06/22 07:00:00;;;;;;;20.08;15.38;;;22.10;72.10;;;;;;4997670;28;20380;-74
2023/06/22 07:02:27;;;;;;;20.38;16.52;;;22.20;71.70;;;;;;5005724;28;20060;-75
2023/06/22 07:04:56;;;;;;;23.55;17.38;;;22.30;71.60;;;;;;5007808;28;20553;-74
2023/06/22 07:07:22;;;;;;;22.75;16.88;;;22.50;71.70;;;;;;4997834;28;20459;-73
2023/06/22 07:09:48;;;;;;;24.00;18.10;;;22.80;70.60;;;;;;5010544;28;20037;-75
2023/06/22 07:12:14;;;;;;;22.52;17.75;;;22.80;69.70;;;;;;4996344;28;20030;-74
2023/06/22 07:14:40;;;;;;;23.98;19.45;;;22.90;69.60;;;;;;5007676;28;20056;-73
2023/06/22 07:17:06;;;;;;;25.23;19.58;;;23.00;69.20;;;;;;4995585;28;20035;-73
2023/06/22 07:19:33;;;;;;;23.55;18.77;;;22.90;69.60;;;;;;4993194;28;20056;-74
2023/06/22 07:21:58;;;;;;;23.83;19.08;;;22.90;69.90;;;;;;5001104;28;20052;-73
2023/06/22 07:24:24;;;;;;;26.08;19.30;;;22.90;70.10;;;;;;5005646;28;20030;-72
2023/06/22 07:26:51;;;;;;;26.20;20.23;;;22.90;69.70;;;;;;4999466;28;20060;-73
2023/06/22 07:29:17;;;;;;;24.75;19.75;;;23.00;69.80;;;;;;4994433;28;20058;-73
2023/06/22 07:31:43;;;;;;;25.92;19.83;;;23.10;69.30;;;;;;4999084;28;20565;-74
2023/06/22 07:34:09;;;;;;;27.67;20.02;;;23.20;69.10;;;;;;5000415;28;20530;-74
2023/06/22 07:36:35;;;;;;;25.48;20.23;;;23.30;69.00;;;;;;5003700;28;20037;-73
2023/06/22 07:39:02;;;;;;;26.10;20.25;;;23.30;69.30;;;;;;4995366;28;20068;-72
2023/06/22 07:41:28;;;;;;;23.27;18.15;;;23.30;68.80;;;;;;5001341;28;20038;-72
2023/06/22 07:43:54;;;;;;;28.35;20.67;;;23.30;69.50;;;;;;4998314;28;20042;-73
2023/06/22 07:46:20;;;;;;;26.08;20.88;;;23.30;68.70;;;;;;4992897;28;20060;-73
2023/06/22 07:48:45;;;;;;;23.25;19.52;;;23.20;69.20;;;;;;4994254;28;20062;-74
2023/06/22 07:51:14;;;;;;;25.58;21.83;;;23.30;69.20;;;;;;4998571;28;20732;-73
2023/06/22 07:53:44;;;;;;;25.38;21.27;;;23.20;69.00;;;;;;5003057;28;20018;-72
2023/06/22 07:56:13;;;;;;;23.90;20.92;;;23.30;69.50;;;;;;4997644;28;20045;-72
2023/06/22 07:58:39;;;;;;;28.35;21.98;;;23.30;69.40;;;;;;4999237;28;20510;-72
2023/06/22 08:01:05;;;;;;;23.45;20.70;;;23.40;69.00;;;;;;5001012;28;20030;-73
2023/06/22 08:03:32;;;;;;;25.90;22.33;;;23.30;69.00;;;;;;5003157;28;20033;-76
2023/06/22 08:05:57;;;;;;;26.77;21.17;;;23.20;69.70;;;;;;5006623;28;20026;-75
2023/06/22 08:08:24;;;;;;;26.63;21.42;;;23.20;69.60;;;;;;5004964;28;20034;-72
2023/06/22 08:10:49;;;;;;;25.65;21.65;;;23.20;70.00;;;;;;5000842;28;20056;-72
2023/06/22 08:13:15;;;;;;;26.10;22.15;;;23.30;69.70;;;;;;5008524;28;20033;-74
2023/06/22 08:15:41;;;;;;;26.55;21.88;;;23.30;69.70;;;;;;5016421;28;20116;-77
2023/06/22 08:18:06;;;;;;;26.85;22.13;;;23.20;69.90;;;;;;5010839;28;20038;-72
2023/06/22 08:20:32;;;;;;;25.92;23.05;;;23.10;70.00;;;;;;5015616;28;20126;-74
2023/06/22 08:23:00;;;;;;;22.00;18.50;;;23.10;70.00;;;;;;5012955;28;20022;-72
2023/06/22 08:25:26;;;;;;;29.38;22.90;;;23.30;70.40;;;;;;5012462;28;20072;-72
2023/06/22 08:27:51;;;;;;;29.23;23.25;;;23.40;70.10;;;;;;5015031;28;20041;-72
2023/06/22 08:30:18;;;;;;;24.88;21.40;;;23.40;69.90;;;;;;5001925;28;20493;-72
2023/06/22 08:32:44;;;;;;;25.20;22.52;;;23.30;70.30;;;;;;5014753;28;21785;-73
2023/06/22 08:35:10;;;;;;;25.95;21.90;;;23.40;69.80;;;;;;5009975;28;20536;-74
2023/06/22 08:37:36;;;;;;;28.75;23.50;;;23.40;69.70;;;;;;5000855;28;20136;-78
2023/06/22 08:40:05;;;;;;;28.33;23.48;;;23.30;69.50;;;;;;5005676;28;20417;-78
2023/06/22 08:42:31;;;;;;;27.75;23.25;;;23.10;70.10;;;;;;5001442;28;20100;-79
2023/06/22 08:44:57;;;;;;;27.60;23.15;;;23.20;69.60;;;;;;5006940;28;20022;-78
2023/06/22 08:47:23;;;;;;;27.15;23.85;;;23.20;69.90;;;;;;5007962;28;20371;-78
2023/06/22 08:49:49;;;;;;;31.30;26.50;;;23.20;70.00;;;;;;5009948;28;20066;-77
2023/06/22 08:52:15;;;;;;;25.73;23.00;;;23.10;70.30;;;;;;5008527;28;20124;-78
2023/06/22 08:54:40;;;;;;;31.02;25.50;;;23.20;70.40;;;;;;5007632;28;20056;-77
2023/06/22 08:57:06;;;;;;;31.48;26.75;;;23.20;70.20;;;;;;5012594;28;20045;-78
2023/06/22 08:59:32;;;;;;;32.58;28.15;;;23.30;70.30;;;;;;5007220;28;20489;-78
2023/06/22 09:01:58;;;;;;;35.63;29.23;;;23.30;70.30;;;;;;5000972;28;20034;-78
2023/06/22 09:04:24;;;;;;;37.75;30.77;;;23.40;70.30;;;;;;5004150;28;20470;-79
2023/06/22 09:06:52;;;;;;;34.53;30.15;;;23.30;69.70;;;;;;5002581;28;20403;-78
2023/06/22 09:09:18;;;;;;;34.85;29.33;;;23.20;70.20;;;;;;5010223;28;20037;-79
2023/06/22 09:11:44;;;;;;;34.10;27.38;;;23.20;70.40;;;;;;5008982;28;20038;-80
2023/06/22 09:14:10;;;;;;;32.20;27.55;;;23.20;70.80;;;;;;5004138;28;20076;-80
2023/06/22 09:16:36;;;;;;;30.00;26.27;;;23.20;70.40;;;;;;5008441;28;20044;-80
2023/06/22 09:19:02;;;;;;;29.80;25.23;;;23.10;70.10;;;;;;5005798;28;20033;-79
2023/06/22 09:21:28;;;;;;;26.27;23.35;;;23.10;69.80;;;;;;5001316;28;20034;-78
2023/06/22 09:23:54;;;;;;;25.90;22.70;;;23.10;69.30;;;;;;5006812;28;20052;-77
2023/06/22 09:26:20;;;;;;;26.42;21.55;;;23.10;68.70;;;;;;5002922;28;20495;-78
2023/06/22 09:28:46;;;;;;;26.35;22.25;;;23.00;68.50;;;;;;5011629;28;20059;-77
2023/06/22 09:31:12;;;;;;;23.35;20.77;;;22.90;68.20;;;;;;5004572;28;20049;-79
2023/06/22 09:33:39;;;;;;;24.02;21.40;;;23.00;68.50;;;;;;5011632;28;20033;-76
2023/06/22 09:36:08;;;;;;;23.35;20.90;;;23.00;68.10;;;;;;5003077;28;20489;-79
2023/06/22 09:38:38;;;;;;;22.85;20.48;;;23.00;68.20;;;;;;5002582;28;20563;-79
2023/06/22 09:41:04;;;;;;;22.55;20.17;;;22.90;68.60;;;;;;5002504;28;20030;-78
2023/06/22 09:43:35;;;;;;;25.40;20.55;;;23.00;68.90;;;;;;5006361;28;20026;-79
2023/06/22 09:46:01;;;;;;;21.63;19.33;;;23.00;69.60;;;;;;5011226;28;20032;-81
2023/06/22 09:48:28;;;;;;;24.42;21.83;;;23.10;69.90;;;;;;5004126;28;20034;-80
2023/06/22 09:50:54;;;;;;;26.08;21.67;;;23.10;69.10;;;;;;5000012;28;20029;-80
2023/06/22 09:53:19;;;;;;;25.35;22.05;;;23.10;69.80;;;;;;5013036;28;20038;-80
2023/06/22 09:55:45;;;;;;;26.35;23.63;;;23.00;69.80;;;;;;5008081;28;20044;-80
2023/06/22 09:58:11;;;;;;;25.40;22.70;;;23.00;69.90;;;;;;5005111;28;20044;-81
2023/06/22 10:00:36;;;;;;;27.83;23.25;;;23.00;69.80;;;;;;4998780;28;20402;-80
2023/06/22 10:03:02;;;;;;;25.20;22.60;;;22.90;70.10;;;;;;5005858;28;20041;-80
2023/06/22 10:05:28;;;;;;;27.67;23.13;;;23.00;70.10;;;;;;4999510;28;20120;-79
2023/06/22 10:07:53;;;;;;;28.08;24.42;;;22.90;70.00;;;;;;5007341;28;20099;-80
2023/06/22 10:10:19;;;;;;;24.48;21.77;;;23.00;70.50;;;;;;5004422;28;20092;-79
2023/06/22 10:12:54;;;;;;;25.45;22.77;;;23.00;70.60;;;;;;5000562;28;20395;-80
2023/06/22 10:15:21;;;;;;;26.83;23.48;;;23.00;70.40;;;;;;5002855;28;20356;-79
2023/06/22 10:17:47;;;;;;;26.20;23.38;;;23.00;70.00;;;;;;5001275;28;20117;-81
2023/06/22 10:20:13;;;;;;;29.60;25.50;;;23.10;70.50;;;;;;5015105;28;20029;-80
2023/06/22 10:22:40;;;;;;;28.17;25.20;;;22.90;70.20;;;;;;5010153;28;20787;-79
2023/06/22 10:25:07;;;;;;;28.25;25.25;;;22.80;70.50;;;;;;5010587;28;20465;-78
2023/06/22 10:27:32;;;;;;;30.17;25.35;;;22.80;71.00;;;;;;5005376;28;20414;-79
2023/06/22 10:29:58;;;;;;;28.98;25.88;;;22.60;71.30;;;;;;5004517;28;20030;-77
2023/06/22 10:32:24;;;;;;;28.27;23.65;;;22.70;71.50;;;;;;5008144;28;20444;-79
2023/06/22 10:34:49;;;;;;;28.17;25.17;;;22.70;71.70;;;;;;4995087;28;20951;-79
2023/06/22 10:37:15;;;;;;;30.70;27.38;;;22.70;71.80;;;;;;5001086;28;20525;-77
2023/06/22 10:39:41;;;;;;;27.65;24.02;;;22.60;72.10;;;;;;5006149;28;20037;-80
2023/06/22 10:42:07;;;;;;;31.08;26.00;;;22.70;72.60;;;;;;5006704;28;20087;-80
2023/06/22 10:44:32;;;;;;;33.33;27.08;;;22.70;73.10;;;;;;5002817;28;20090;-79
2023/06/22 10:47:01;;;;;;;28.95;25.95;;;22.70;73.40;;;;;;5004293;28;20107;-80
2023/06/22 10:49:27;;;;;;;34.97;28.52;;;22.70;74.30;;;;;;5005918;28;20035;-78
2023/06/22 10:51:53;;;;;;;30.60;26.85;;;22.60;75.00;;;;;;4999623;28;20477;-78
2023/06/22 10:54:19;;;;;;;32.03;28.00;;;22.60;75.80;;;;;;5007085;28;20033;-78
2023/06/22 10:56:45;;;;;;;22.13;19.73;;;22.50;76.50;;;;;;5002119;28;20540;-79
2023/06/22 10:59:11;;;;;;;24.70;21.98;;;22.20;72.30;;;;;;5005439;28;20026;-78
2023/06/22 11:01:36;;;;;;;25.60;22.30;;;22.20;72.40;;;;;;5001192;28;20124;-80
2023/06/22 11:04:03;;;;;;;25.85;21.23;;;22.30;73.10;;;;;;4997110;28;20034;-78
2023/06/22 11:06:28;;;;;;;26.33;21.23;;;22.10;73.30;;;;;;4993126;28;20471;-79
2023/06/22 11:08:54;;;;;;;26.60;22.38;;;22.00;73.30;;;;;;4991188;28;20038;-79
2023/06/22 11:11:19;;;;;;;25.95;22.85;;;22.00;74.80;;;;;;4992389;28;20461;-78
2023/06/22 11:13:45;;;;;;;24.25;19.95;;;22.10;74.90;;;;;;4994675;28;20498;-79
2023/06/22 11:16:11;;;;;;;23.42;20.08;;;22.00;73.30;;;;;;4995840;28;20050;-79
2023/06/22 11:18:36;;;;;;;23.80;20.13;;;21.80;73.90;;;;;;4989444;28;20041;-80
2023/06/22 11:21:02;;;;;;;22.45;20.05;;;21.80;73.70;;;;;;4996142;28;20080;-79
2023/06/22 11:23:28;;;;;;;21.63;19.25;;;21.80;74.20;;;;;;4995191;28;20853;-79
2023/06/22 11:25:56;;;;;;;23.45;18.35;;;21.90;74.40;;;;;;4990585;28;20096;-78
2023/06/22 11:28:22;;;;;;;20.65;17.75;;;21.80;72.10;;;;;;4995667;28;20044;-80
2023/06/22 11:30:48;;;;;;;20.33;17.42;;;21.80;72.70;;;;;;4996802;28;20026;-79
2023/06/22 11:33:13;;;;;;;20.55;17.73;;;21.80;72.40;;;;;;4995650;28;20034;-79
2023/06/22 11:35:39;;;;;;;21.27;18.52;;;21.80;71.80;;;;;;5000591;28;20026;-80
2023/06/22 11:38:05;;;;;;;21.35;17.88;;;21.80;72.20;;;;;;5000340;28;20037;-79
2023/06/22 11:40:31;;;;;;;19.80;15.77;;;21.80;72.00;;;;;;4998834;28;20120;-79
2023/06/22 11:42:56;;;;;;;19.33;15.90;;;21.70;71.10;;;;;;4999528;28;20031;-78
2023/06/22 11:45:22;;;;;;;15.90;13.35;;;21.70;71.30;;;;;;5001075;28;20085;-80
2023/06/22 11:47:48;;;;;;;16.17;12.23;;;21.70;69.10;;;;;;4995585;28;20030;-79
2023/06/22 11:50:14;;;;;;;19.95;12.05;;;21.60;68.60;;;;;;5001524;28;20367;-79
2023/06/22 11:52:39;;;;;;;16.67;12.80;;;21.60;68.30;;;;;;5000131;28;20075;-80
2023/06/22 11:55:06;;;;;;;16.60;11.45;;;21.60;68.40;;;;;;5006223;28;20025;-79
2023/06/22 11:57:51;;;;;;;16.90;12.85;;;21.60;69.40;;;;;;5000125;28;20073;-79
2023/06/22 12:00:17;;;;;;;18.33;11.73;;;21.60;69.90;;;;;;4999875;28;20022;-78
2023/06/22 12:02:44;;;;;;;20.02;13.38;;;21.60;70.80;;;;;;4999086;28;20030;-80
2023/06/22 12:05:10;;;;;;;18.77;13.82;;;21.50;71.20;;;;;;5005790;28;20021;-79
2023/06/22 12:07:37;;;;;;;18.48;14.35;;;21.60;72.00;;;;;;5000445;28;21154;-80
2023/06/22 12:10:03;;;;;;;18.50;14.20;;;21.50;72.40;;;;;;5003813;28;20032;-78
2023/06/22 12:12:29;;;;;;;19.25;13.73;;;21.50;72.80;;;;;;5010502;28;20015;-79
2023/06/22 12:14:55;;;;;;;19.92;14.00;;;21.40;74.20;;;;;;5026248;28;20083;-80
2023/06/22 12:17:20;;;;;;;17.95;14.32;;;21.50;74.50;;;;;;5007734;28;20046;-76
2023/06/22 12:19:46;;;;;;;19.77;14.43;;;21.60;74.50;;;;;;5001686;28;20029;-76
2023/06/22 12:22:12;;;;;;;19.65;14.30;;;21.60;74.20;;;;;;5003358;28;20526;-78
2023/06/22 12:24:38;;;;;;;20.50;15.18;;;21.90;74.70;;;;;;4998270;28;20117;-81
2023/06/22 12:27:04;;;;;;;22.08;15.52;;;22.10;73.70;;;;;;4999252;28;20447;-77
2023/06/22 12:29:29;;;;;;;20.83;15.15;;;22.10;74.70;;;;;;4999998;28;20120;-78